createdAt,value
2023-04-15T00:01:27.084Z,93.08
2023-04-15T00:04:20.710Z,92.71
2023-04-15T00:07:16.470Z,92.44
2023-04-15T00:10:12.353Z,92.17
2023-04-15T00:13:06.322Z,91.90
2023-04-15T00:15:59.024Z,91.89
2023-04-15T00:18:52.070Z,91.93
2023-04-15T00:21:45.299Z,91.47
2023-04-15T00:24:29.335Z,91.17
2023-04-15T00:27:22.392Z,90.99
2023-04-15T00:30:10.657Z,90.10
2023-04-15T00:32:55.491Z,89.44
2023-04-15T00:35:28.127Z,88.94
2023-04-15T00:38:14.197Z,88.74
2023-04-15T00:41:07.787Z,88.62
2023-04-15T00:44:00.791Z,88.51
2023-04-15T00:46:48.132Z,88.41
2023-04-15T00:49:20.928Z,88.53
2023-04-15T00:52:16.214Z,88.55
2023-04-15T00:54:58.864Z,88.74
2023-04-15T00:57:52.122Z,88.54
2023-04-15T01:00:46.280Z,88.53
2023-04-15T01:03:32.390Z,88.51
2023-04-15T01:06:27.217Z,88.58
2023-04-15T01:09:03.529Z,88.64
2023-04-15T01:11:57.269Z,88.66
2023-04-15T01:14:50.326Z,88.77
2023-04-15T01:17:43.759Z,88.49
2023-04-15T01:20:37.719Z,88.35
2023-04-15T01:23:19.539Z,88.28
2023-04-15T01:26:13.061Z,88.20
2023-04-15T01:29:06.762Z,88.05
2023-04-15T01:31:59.548Z,87.99
2023-04-15T01:34:53.028Z,87.88
2023-04-15T01:37:29.491Z,87.78
2023-04-15T01:40:23.546Z,87.76
2023-04-15T01:43:16.840Z,87.81
2023-04-15T01:46:10.625Z,87.82
2023-04-15T01:49:03.460Z,87.83
2023-04-15T01:52:47.825Z,87.76
2023-04-15T01:55:22.054Z,87.73
2023-04-15T01:58:03.765Z,87.63
2023-04-15T02:00:50.316Z,87.64
2023-04-15T02:03:43.570Z,87.59
2023-04-15T02:06:36.782Z,87.56
2023-04-15T02:09:30.102Z,87.84
2023-04-15T02:12:23.186Z,87.90
2023-04-15T02:15:17.445Z,87.91
2023-04-15T02:18:11.972Z,87.97
2023-04-15T02:21:07.254Z,87.99
2023-04-15T02:24:00.003Z,87.90
2023-04-15T02:26:46.812Z,87.81
2023-04-15T02:29:23.648Z,87.84
2023-04-15T02:32:07.402Z,87.65
2023-04-15T02:34:51.998Z,87.70
2023-04-15T02:37:37.153Z,87.63
2023-04-15T02:40:30.857Z,87.20
2023-04-15T02:43:22.648Z,87.07
2023-04-15T02:46:15.440Z,87.22
2023-04-15T02:49:08.657Z,87.14
2023-04-15T02:52:01.719Z,87.06
2023-04-15T02:54:44.449Z,87.00
2023-04-15T02:57:39.223Z,86.81
2023-04-15T03:00:32.311Z,86.70
2023-04-15T03:03:11.089Z,86.63
2023-04-15T03:06:06.225Z,86.66
2023-04-15T03:08:50.476Z,86.52
2023-04-15T03:11:43.288Z,86.33
2023-04-15T03:14:35.973Z,86.32
2023-04-15T03:17:28.969Z,86.12
2023-04-15T03:20:22.024Z,86.05
2023-04-15T03:23:13.560Z,85.88
2023-04-15T03:26:07.074Z,85.78
2023-04-15T03:29:00.196Z,85.75
2023-04-15T03:31:53.252Z,85.82
2023-04-15T03:34:46.123Z,85.77
2023-04-15T03:37:38.809Z,85.76
2023-04-15T03:40:31.748Z,85.78
2023-04-15T03:43:24.329Z,85.84
2023-04-15T03:46:17.039Z,85.79
2023-04-15T03:49:10.940Z,85.72
2023-04-15T03:51:56.746Z,85.61
2023-04-15T03:54:51.577Z,85.59
2023-04-15T03:57:39.144Z,85.58
2023-04-15T04:00:22.915Z,85.50
2023-04-15T04:03:06.738Z,85.32
2023-04-15T04:05:59.662Z,85.25
2023-04-15T04:08:52.060Z,85.23
2023-04-15T04:11:45.834Z,85.10
2023-04-15T04:14:38.465Z,85.08
2023-04-15T04:17:31.119Z,84.82
2023-04-15T04:20:24.421Z,84.56
2023-04-15T04:23:09.289Z,84.54
2023-04-15T04:26:01.269Z,84.72
2023-04-15T04:28:52.942Z,84.68
2023-04-15T04:31:40.162Z,84.64
2023-04-15T04:34:26.728Z,84.25
2023-04-15T04:37:19.810Z,84.22
2023-04-15T04:40:14.261Z,84.31
2023-04-15T04:43:07.109Z,84.15
2023-04-15T04:45:41.392Z,84.21
2023-04-15T04:48:34.352Z,84.07
2023-04-15T04:51:28.183Z,84.14
2023-04-15T04:54:21.422Z,84.05
2023-04-15T04:57:10.245Z,83.89
2023-04-15T04:59:42.896Z,83.61
2023-04-15T05:02:36.621Z,82.91
2023-04-15T05:05:29.407Z,82.75
2023-04-15T05:08:22.266Z,82.74
2023-04-15T05:11:16.376Z,82.44
2023-04-15T05:14:09.513Z,82.25
2023-04-15T05:17:02.481Z,81.99
2023-04-15T05:19:55.128Z,81.66
2023-04-15T05:22:48.213Z,81.49
2023-04-15T05:25:32.504Z,81.44
2023-04-15T05:28:25.398Z,81.00
2023-04-15T05:31:08.802Z,80.39
2023-04-15T05:33:50.556Z,79.92
2023-04-15T05:36:26.600Z,79.67
2023-04-15T05:39:19.427Z,78.84
2023-04-15T05:42:12.269Z,78.73
2023-04-15T05:45:09.168Z,78.15
2023-04-15T05:47:54.467Z,77.80
2023-04-15T05:50:32.408Z,77.65
2023-04-15T05:53:16.352Z,76.20
2023-04-15T05:55:49.099Z,76.23
2023-04-15T05:58:24.724Z,75.33
2023-04-15T06:00:58.920Z,74.34
2023-04-15T06:03:33.814Z,74.35
2023-04-15T06:06:07.803Z,74.12
2023-04-15T06:08:40.664Z,73.50
2023-04-15T06:11:16.426Z,72.76
2023-04-15T06:13:51.922Z,71.58
2023-04-15T06:16:33.664Z,70.77
2023-04-15T06:19:06.350Z,70.61
2023-04-15T06:21:50.309Z,69.99
2023-04-15T06:24:25.649Z,70.00
2023-04-15T06:27:02.324Z,69.33
2023-04-15T06:29:34.831Z,68.95
2023-04-15T06:32:08.318Z,68.99
2023-04-15T06:34:43.820Z,68.44
2023-04-15T06:37:26.309Z,68.12
2023-04-15T06:40:02.454Z,67.94
2023-04-15T06:42:46.353Z,68.11
2023-04-15T06:45:22.161Z,67.98
2023-04-15T06:47:54.872Z,67.67
2023-04-15T06:50:32.907Z,67.28
2023-04-15T06:53:06.747Z,67.24
2023-04-15T06:55:42.841Z,67.28
2023-04-15T06:58:15.762Z,67.25
2023-04-15T07:00:48.880Z,67.57
2023-04-15T07:03:22.556Z,67.12
2023-04-15T07:05:57.921Z,67.23
2023-04-15T07:08:30.728Z,66.68
2023-04-15T07:11:03.472Z,66.47
2023-04-15T07:13:56.438Z,66.31
2023-04-15T07:16:32.431Z,66.43
2023-04-15T07:19:15.112Z,66.42
2023-04-15T07:21:59.184Z,65.63
2023-04-15T07:24:32.279Z,65.19
2023-04-15T07:27:05.423Z,65.12
2023-04-15T07:29:37.973Z,64.68
2023-04-15T07:32:15.613Z,62.63
2023-04-15T07:34:52.881Z,62.78
2023-04-15T07:37:25.800Z,62.77
2023-04-15T07:39:58.721Z,62.66
2023-04-15T07:42:42.620Z,62.64
2023-04-15T07:45:17.794Z,62.76
2023-04-15T07:47:50.980Z,63.42
2023-04-15T07:50:23.972Z,63.78
2023-04-15T07:52:57.478Z,63.59
2023-04-15T07:55:30.759Z,62.98
2023-04-15T07:58:03.319Z,63.39
2023-04-15T08:00:36.259Z,63.15
2023-04-15T08:03:09.417Z,62.33
2023-04-15T08:05:42.289Z,62.21
2023-04-15T08:08:18.153Z,62.15
2023-04-15T08:10:52.601Z,62.42
2023-04-15T08:13:26.046Z,62.81
2023-04-15T08:16:20.503Z,63.01
2023-04-15T08:18:56.765Z,63.00
2023-04-15T08:21:31.031Z,62.60
2023-04-15T08:24:03.890Z,62.77
2023-04-15T08:26:37.206Z,62.07
2023-04-15T08:29:10.986Z,62.03
2023-04-15T08:31:43.645Z,62.30
2023-04-15T08:34:16.532Z,62.06
2023-04-15T08:36:49.519Z,61.30
2023-04-15T08:39:25.680Z,60.80
2023-04-15T08:42:01.788Z,61.08
2023-04-15T08:44:38.423Z,61.39
2023-04-15T08:47:14.438Z,60.89
2023-04-15T08:49:53.817Z,60.54
2023-04-15T08:52:41.244Z,59.75
2023-04-15T08:55:15.595Z,58.21
2023-04-15T08:57:52.337Z,57.92
2023-04-15T09:00:26.087Z,57.23
2023-04-15T09:03:00.448Z,56.88
2023-04-15T09:05:35.596Z,56.76
2023-04-15T09:08:09.190Z,56.05
2023-04-15T09:10:41.789Z,55.48
2023-04-15T09:13:15.103Z,54.44
2023-04-15T09:15:48.121Z,54.22
2023-04-15T09:18:32.300Z,54.48
2023-04-15T09:21:12.998Z,54.20
2023-04-15T09:23:58.874Z,54.17
2023-04-15T09:26:40.413Z,54.11
2023-04-15T09:29:22.279Z,53.73
2023-04-15T09:31:54.887Z,54.26
2023-04-15T09:34:38.128Z,54.41
2023-04-15T09:37:31.300Z,53.95
2023-04-15T09:40:05.216Z,53.60
2023-04-15T09:42:38.189Z,53.54
2023-04-15T09:45:15.690Z,52.17
2023-04-15T09:47:49.183Z,50.17
2023-04-15T09:50:32.750Z,50.67
2023-04-15T09:53:06.638Z,51.16
2023-04-15T09:55:52.559Z,49.78
2023-04-15T09:58:27.517Z,50.03
2023-04-15T10:01:01.919Z,49.84
2023-04-15T10:03:37.006Z,50.96
2023-04-15T10:06:10.746Z,51.23
2023-04-15T10:08:55.497Z,51.14
2023-04-15T10:11:31.924Z,51.54
2023-04-15T10:14:06.125Z,52.33
2023-04-15T10:16:44.917Z,51.79
2023-04-15T10:19:24.397Z,51.90
2023-04-15T10:21:57.790Z,50.82
2023-04-15T10:24:32.638Z,50.63
2023-04-15T10:27:09.436Z,50.52
2023-04-15T10:29:42.427Z,49.26
2023-04-15T10:32:16.021Z,48.55
2023-04-15T10:34:54.489Z,47.78
2023-04-15T10:37:37.833Z,47.56
2023-04-15T10:40:31.577Z,48.59
2023-04-15T10:43:05.822Z,48.71
2023-04-15T10:45:49.456Z,46.67
2023-04-15T10:48:22.385Z,47.11
2023-04-15T10:51:02.235Z,48.19
2023-04-15T10:54:00.869Z,47.47
2023-04-15T10:56:45.122Z,47.18
2023-04-15T10:59:32.793Z,46.73
2023-04-15T11:02:17.191Z,44.86
2023-04-15T11:05:01.151Z,44.65
2023-04-15T11:07:58.638Z,46.04
2023-04-15T11:10:57.838Z,45.66
2023-04-15T11:13:54.255Z,46.36
2023-04-15T11:16:48.635Z,45.58
2023-04-15T11:19:39.427Z,46.32
2023-04-15T11:22:21.230Z,47.18
2023-04-15T11:25:06.249Z,46.97
2023-04-15T11:27:38.886Z,47.55
2023-04-15T11:30:24.834Z,47.17
2023-04-15T11:33:01.246Z,47.76
2023-04-15T11:35:34.820Z,47.38
2023-04-15T11:38:10.205Z,46.88
2023-04-15T11:40:46.343Z,44.81
2023-04-15T11:43:21.837Z,43.90
2023-04-15T11:46:06.057Z,44.73
2023-04-15T11:48:43.502Z,46.24
2023-04-15T11:51:16.763Z,44.45
2023-04-15T11:53:51.175Z,43.97
2023-04-15T11:56:25.706Z,46.00
2023-04-15T11:59:09.482Z,45.98
2023-04-15T12:01:45.409Z,46.38
2023-04-15T12:04:38.435Z,47.07
2023-04-15T12:07:14.195Z,47.86
2023-04-15T12:10:02.067Z,47.22
2023-04-15T12:12:45.381Z,47.91
2023-04-15T12:15:18.638Z,48.67
2023-04-15T12:17:56.108Z,48.74
2023-04-15T12:20:32.189Z,49.21
2023-04-15T12:23:09.931Z,49.37
2023-04-15T12:25:42.830Z,49.03
2023-04-15T12:28:15.838Z,49.41
2023-04-15T12:30:54.059Z,49.88
2023-04-15T12:33:37.417Z,53.52
2023-04-15T12:36:12.893Z,55.72
2023-04-15T12:38:45.468Z,56.25
2023-04-15T12:41:26.324Z,57.16
2023-04-15T12:43:58.999Z,57.26
2023-04-15T12:46:33.796Z,58.49
2023-04-15T12:49:19.795Z,59.52
2023-04-15T12:51:57.279Z,60.11
2023-04-15T12:54:41.258Z,59.96
2023-04-15T12:57:14.025Z,60.26
2023-04-15T12:59:46.535Z,60.58
2023-04-15T13:02:25.689Z,59.19
2023-04-15T13:04:58.902Z,60.35
2023-04-15T13:07:36.686Z,61.58
2023-04-15T13:10:11.954Z,63.57
2023-04-15T13:12:46.920Z,65.04
2023-04-15T13:15:21.036Z,65.87
2023-04-15T13:17:54.044Z,66.90
2023-04-15T13:20:27.795Z,68.11
2023-04-15T13:23:01.694Z,68.37
2023-04-15T13:25:34.248Z,69.05
2023-04-15T13:28:06.904Z,69.05
2023-04-15T13:30:43.035Z,68.79
2023-04-15T13:33:16.881Z,69.76
2023-04-15T13:35:50.550Z,69.72
2023-04-15T13:38:23.158Z,68.92
2023-04-15T13:40:58.027Z,70.02
2023-04-15T13:43:30.714Z,70.31
2023-04-15T13:46:04.830Z,70.48
2023-04-15T13:48:37.536Z,70.03
2023-04-15T13:51:10.678Z,70.45
2023-04-15T13:53:43.064Z,69.75
2023-04-15T13:56:16.162Z,69.01
2023-04-15T13:58:49.995Z,67.62
2023-04-15T14:01:22.520Z,67.41
2023-04-15T14:03:55.199Z,67.42
2023-04-15T14:06:28.712Z,67.23
2023-04-15T14:09:01.086Z,66.97
2023-04-15T14:11:37.834Z,67.25
2023-04-15T14:14:11.817Z,67.82
2023-04-15T14:16:44.546Z,69.20
2023-04-15T14:19:17.309Z,70.11
2023-04-15T14:21:49.969Z,68.61
2023-04-15T14:24:24.502Z,68.77
2023-04-15T14:26:57.628Z,69.26
2023-04-15T14:29:31.174Z,70.25
2023-04-15T14:32:11.414Z,70.50
2023-04-15T14:34:47.362Z,71.18
2023-04-15T14:37:19.862Z,72.02
2023-04-15T14:39:52.645Z,72.59
2023-04-15T14:42:25.015Z,73.27
2023-04-15T14:45:12.360Z,73.80
2023-04-15T14:47:56.123Z,74.23
2023-04-15T14:50:28.874Z,74.65
2023-04-15T14:53:01.674Z,75.17
2023-04-15T14:55:35.559Z,75.85
2023-04-15T14:58:08.328Z,76.43
2023-04-15T15:00:44.570Z,76.74
2023-04-15T15:03:17.141Z,77.14
2023-04-15T15:05:49.745Z,77.25
2023-04-15T15:08:23.188Z,77.48
2023-04-15T15:10:58.863Z,77.46
2023-04-15T15:13:31.686Z,77.73
2023-04-15T15:16:04.242Z,77.54
2023-04-15T15:18:37.210Z,77.47
2023-04-15T15:21:11.599Z,77.37
2023-04-15T15:23:44.444Z,76.71
2023-04-15T15:26:19.670Z,76.64
2023-04-15T15:28:52.564Z,76.82
2023-04-15T15:31:30.059Z,76.91
2023-04-15T15:34:22.809Z,76.43
2023-04-15T15:36:55.546Z,76.71
2023-04-15T15:39:28.934Z,76.94
2023-04-15T15:42:01.655Z,76.89
2023-04-15T15:44:36.338Z,76.69
2023-04-15T15:47:11.908Z,76.77
2023-04-15T15:49:57.041Z,76.56
2023-04-15T15:52:29.808Z,76.58
2023-04-15T15:55:03.277Z,76.09
2023-04-15T15:57:35.834Z,75.75
2023-04-15T16:00:12.543Z,75.50
2023-04-15T16:05:43.574Z,75.10
2023-04-15T16:08:16.107Z,74.81
2023-04-15T16:10:49.023Z,74.48
2023-04-15T16:13:21.700Z,74.18
2023-04-15T16:15:56.657Z,74.32
2023-04-15T16:18:29.595Z,74.04
2023-04-15T16:21:02.412Z,73.94
2023-04-15T16:23:35.453Z,73.88
2023-04-15T16:26:08.007Z,74.21
2023-04-15T16:28:40.724Z,74.19
2023-04-15T16:31:13.765Z,74.34
2023-04-15T16:33:46.411Z,74.65
2023-04-15T16:36:21.436Z,75.10
2023-04-15T16:38:56.778Z,75.32
2023-04-15T16:41:34.331Z,75.63
2023-04-15T16:44:09.315Z,75.96
2023-04-15T16:46:42.969Z,76.20
2023-04-15T16:49:16.144Z,76.55
2023-04-15T16:51:54.126Z,76.66
2023-04-15T16:54:29.171Z,76.87
2023-04-15T16:57:03.654Z,77.04
2023-04-15T16:59:39.006Z,77.11
2023-04-15T17:02:13.789Z,77.49
2023-04-15T17:04:46.774Z,77.84
2023-04-15T17:07:39.573Z,78.24
2023-04-15T17:10:17.120Z,79.12
2023-04-15T17:13:10.465Z,79.65
2023-04-15T17:15:46.095Z,79.90
2023-04-15T17:18:28.738Z,80.28
2023-04-15T17:21:03.685Z,80.49
2023-04-15T17:23:46.844Z,80.87
2023-04-15T17:26:20.114Z,81.07
2023-04-15T17:28:55.936Z,81.20
2023-04-15T17:31:41.189Z,81.56
2023-04-15T17:34:49.792Z,81.89
2023-04-15T17:37:37.094Z,81.67
2023-04-15T17:40:22.362Z,81.91
2023-04-15T17:43:06.006Z,81.97
2023-04-15T17:45:59.655Z,81.96
2023-04-15T17:48:32.399Z,82.17
2023-04-15T17:51:06.848Z,82.22
2023-04-15T17:53:39.524Z,82.50
2023-04-15T17:56:22.379Z,82.32
2023-04-15T17:58:54.913Z,82.32
2023-04-15T18:01:29.899Z,82.67
2023-04-15T18:04:04.190Z,82.96
2023-04-15T18:06:57.871Z,82.98
2023-04-15T18:09:30.535Z,83.05
2023-04-15T18:12:07.821Z,83.32
2023-04-15T18:14:43.480Z,83.53
2023-04-15T18:17:15.937Z,83.53
2023-04-15T18:19:48.544Z,83.67
2023-04-15T18:22:24.588Z,84.02
2023-04-15T18:24:59.228Z,84.25
2023-04-15T18:27:36.073Z,84.68
2023-04-15T18:30:11.399Z,85.20
2023-04-15T18:32:46.685Z,85.88
2023-04-15T18:35:31.018Z,86.60
2023-04-15T18:38:03.869Z,87.21
2023-04-15T18:40:36.373Z,87.50
2023-04-15T18:43:09.686Z,87.57
2023-04-15T18:45:43.562Z,87.58
2023-04-15T18:48:17.655Z,87.80
2023-04-15T18:50:54.233Z,87.78
2023-04-15T18:53:48.768Z,87.39
2023-04-15T18:56:33.919Z,87.34
2023-04-15T18:59:27.785Z,87.28
2023-04-15T19:02:13.765Z,87.32
2023-04-15T19:04:49.145Z,87.40
2023-04-15T19:07:36.837Z,87.18
2023-04-15T19:10:10.755Z,87.32
2023-04-15T19:12:43.272Z,87.38
2023-04-15T19:15:17.152Z,87.64
2023-04-15T19:17:50.243Z,87.83
2023-04-15T19:20:24.200Z,87.70
2023-04-15T19:22:57.738Z,88.07
2023-04-15T19:25:30.244Z,88.23
2023-04-15T19:28:05.397Z,88.29
2023-04-15T19:30:38.904Z,88.67
2023-04-15T19:33:23.465Z,88.77
2023-04-15T19:35:59.593Z,89.05
2023-04-15T19:38:36.332Z,89.54
2023-04-15T19:41:11.498Z,90.46
2023-04-15T19:43:54.987Z,90.88
2023-04-15T19:46:30.894Z,91.30
2023-04-15T19:49:04.240Z,91.15
2023-04-15T19:51:38.304Z,91.22
2023-04-15T19:54:13.855Z,91.11
2023-04-15T19:56:46.402Z,90.79
2023-04-15T19:59:21.416Z,90.78
2023-04-15T20:01:58.218Z,90.74
2023-04-15T20:04:34.182Z,90.66
2023-04-15T20:07:07.307Z,90.60
2023-04-15T20:09:39.710Z,90.68
2023-04-15T20:12:51.136Z,90.73
2023-04-15T20:15:09.512Z,90.64
2023-04-15T20:17:41.955Z,90.68
2023-04-15T20:20:27.672Z,90.77
2023-04-15T20:23:10.644Z,90.58
2023-04-15T20:25:46.092Z,90.41
2023-04-15T20:28:30.746Z,90.36
2023-04-15T20:31:03.892Z,90.40
2023-04-15T20:33:37.310Z,90.64
2023-04-15T20:36:09.915Z,91.06
2023-04-15T20:38:42.334Z,90.93
2023-04-15T20:41:16.602Z,90.67
2023-04-15T20:43:49.311Z,90.26
2023-04-15T20:46:22.727Z,90.07
2023-04-15T20:48:56.343Z,89.86
2023-04-15T20:51:33.143Z,90.04
2023-04-15T20:54:08.829Z,90.17
2023-04-15T20:56:41.346Z,90.23
2023-04-15T20:59:13.956Z,90.63
2023-04-15T21:01:46.924Z,90.98
2023-04-15T21:04:31.407Z,90.91
2023-04-15T21:07:03.765Z,90.94
2023-04-15T21:09:36.506Z,90.98
2023-04-15T21:12:12.330Z,91.12
2023-04-15T21:14:44.740Z,91.26
2023-04-15T21:17:18.507Z,91.27
2023-04-15T21:19:50.964Z,91.42
2023-04-15T21:22:23.518Z,91.70
2023-04-15T21:24:57.036Z,91.58
2023-04-15T21:27:29.530Z,91.59
2023-04-15T21:30:05.181Z,91.75
2023-04-15T21:32:40.403Z,91.67
2023-04-15T21:35:13.364Z,91.83
2023-04-15T21:37:46.132Z,91.87
2023-04-15T21:40:29.244Z,91.75
2023-04-15T21:43:04.819Z,91.38
2023-04-15T21:45:39.624Z,91.35
2023-04-15T21:48:14.014Z,91.46
2023-04-15T21:50:46.608Z,91.45
2023-04-15T21:53:19.374Z,91.47
2023-04-15T21:55:52.366Z,91.83
2023-04-15T21:58:27.346Z,92.07
2023-04-15T22:01:00.380Z,92.04
2023-04-15T22:03:34.980Z,91.83
2023-04-15T22:06:09.269Z,91.84
2023-04-15T22:08:55.200Z,91.78
2023-04-15T22:11:32.584Z,91.58
2023-04-15T22:14:07.061Z,91.53
2023-04-15T22:16:39.573Z,91.74
2023-04-15T22:19:14.737Z,91.44
2023-04-15T22:21:47.360Z,91.59
2023-04-15T22:24:38.222Z,91.63
2023-04-15T22:27:14.535Z,91.68
2023-04-15T22:29:50.392Z,91.75
2023-04-15T22:32:22.691Z,91.76
2023-04-15T22:34:56.612Z,91.93
2023-04-15T22:37:30.713Z,92.20
2023-04-15T22:40:06.939Z,92.07
2023-04-15T22:42:39.849Z,92.15
2023-04-15T22:45:27.527Z,92.06
2023-04-15T22:48:00.259Z,92.11
2023-04-15T22:50:33.040Z,92.21
2023-04-15T22:53:06.132Z,92.10
2023-04-15T22:55:51.958Z,92.18
2023-04-15T22:58:25.123Z,92.23
2023-04-15T23:00:59.341Z,92.23
2023-04-15T23:03:32.215Z,92.37
2023-04-15T23:06:14.595Z,92.64
2023-04-15T23:08:47.888Z,92.91
2023-04-15T23:11:20.848Z,93.22
2023-04-15T23:13:58.354Z,93.54
2023-04-15T23:16:31.342Z,93.82
2023-04-15T23:19:06.365Z,94.05
2023-04-15T23:21:41.131Z,95.48
2023-04-15T23:24:16.695Z,96.51
2023-04-15T23:26:49.575Z,97.14
2023-04-15T23:29:23.488Z,97.34
2023-04-15T23:31:59.538Z,97.01
2023-04-15T23:34:32.127Z,96.41
2023-04-15T23:37:06.009Z,96.05
2023-04-15T23:39:48.008Z,96.00
2023-04-15T23:42:24.278Z,95.85
2023-04-15T23:44:57.246Z,95.70
2023-04-15T23:47:29.703Z,95.79
2023-04-15T23:50:02.655Z,95.83
2023-04-15T23:52:45.015Z,95.68
2023-04-15T23:55:17.952Z,95.45
2023-04-15T23:57:50.414Z,95.33
